Terminal Aerodrome Forecast
Issued by NWS Houston/Galveston, TX

Home | Current Version | Previous Version | Text Only | Print | Product List | Glossary On
Versions: 1 2 3 4 5 6 7 8 9 10 11 12 13 14 15 16 17 18 19 20 21 22 23 24 25 26 27 28 29 30 31 32 33 34 35 36 37 38 39 40 41 42 43 44 45 46 47
000
FTUS44 KHGX 272325
TAFCLL
TAF
KCLL 272325Z 2800/2824 35013G21KT P6SM FEW017 OVC030
     FM280200 35012G19KT 6SM -RA SCT009 OVC015
     FM281000 35011KT 3SM SHRA BR BKN009 OVC015
     FM281500 35010KT P6SM VCSH BKN015 OVC050
     FM282300 35008KT P6SM SCT015 BKN050=

USA.gov is the U.S. government's official web portal to all federal, state and local government web resources and services.